sensor_id;sensor_type;location;lat;lon;timestamp;pressure;altitude;pressure_sealevel;temperature;humidity
36600;BME280;35385;55.668;37.508;2023-01-27T00:00:27;99576.44;;;-3.24;100.00
36600;BME280;35385;55.668;37.508;2023-01-27T00:01:28;99555.66;;;-3.28;100.00
36600;BME280;35385;55.668;37.508;2023-01-27T00:02:28;99571.19;;;-3.24;100.00
36600;BME280;35385;55.668;37.508;2023-01-27T00:03:29;99552.19;;;-3.29;100.00
36600;BME280;35385;55.668;37.508;2023-01-27T00:04:29;99503.22;;;-3.51;100.00
36600;BME280;35385;55.668;37.508;2023-01-27T00:05:30;99551.75;;;-3.13;100.00
36600;BME280;35385;55.668;37.508;2023-01-27T00:06:30;99574.84;;;-3.00;100.00
36600;BME280;35385;55.668;37.508;2023-01-27T00:07:31;99589.69;;;-3.00;100.00
36600;BME280;35385;55.668;37.508;2023-01-27T00:08:32;99503.03;;;-3.45;100.00
36600;BME280;35385;55.668;37.508;2023-01-27T00:09:32;99564.88;;;-3.16;100.00
36600;BME280;35385;55.668;37.508;2023-01-27T00:10:33;99560.16;;;-3.33;100.00
36600;BME280;35385;55.668;37.508;2023-01-27T00:11:33;99579.94;;;-3.25;100.00
36600;BME280;35385;55.668;37.508;2023-01-27T00:12:52;99524.84;;;-3.46;100.00
36600;BME280;35385;55.668;37.508;2023-01-27T00:14:12;99584.91;;;-3.15;100.00
36600;BME280;35385;55.668;37.508;2023-01-27T00:15:13;99504.84;;;-3.47;100.00
36600;BME280;35385;55.668;37.508;2023-01-27T00:16:14;99516.31;;;-3.53;100.00
36600;BME280;35385;55.668;37.508;2023-01-27T00:17:15;99577.25;;;-3.22;100.00
36600;BME280;35385;55.668;37.508;2023-01-27T00:18:15;99583.28;;;-3.19;100.00
36600;BME280;35385;55.668;37.508;2023-01-27T00:19:16;99557.69;;;-3.38;100.00
36600;BME280;35385;55.668;37.508;2023-01-27T00:20:19;99565.44;;;-3.35;100.00
36600;BME280;35385;55.668;37.508;2023-01-27T00:21:40;99569.75;;;-3.34;100.00
36600;BME280;35385;55.668;37.508;2023-01-27T00:22:59;99571.03;;;-3.17;100.00
36600;BME280;35385;55.668;37.508;2023-01-27T00:24:18;99581.22;;;-3.08;100.00
36600;BME280;35385;55.668;37.508;2023-01-27T00:25:37;99589.16;;;-3.11;100.00
36600;BME280;35385;55.668;37.508;2023-01-27T00:26:37;99574.44;;;-3.15;100.00
36600;BME280;35385;55.668;37.508;2023-01-27T00:27:38;99551.47;;;-3.34;100.00
36600;BME280;35385;55.668;37.508;2023-01-27T00:28:39;99595.50;;;-3.20;100.00
36600;BME280;35385;55.668;37.508;2023-01-27T00:29:40;99586.53;;;-3.11;100.00
36600;BME280;35385;55.668;37.508;2023-01-27T00:30:41;99572.59;;;-3.12;100.00
36600;BME280;35385;55.668;37.508;2023-01-27T00:31:41;99571.63;;;-3.08;100.00
36600;BME280;35385;55.668;37.508;2023-01-27T00:33:00;99570.94;;;-3.14;100.00
36600;BME280;35385;55.668;37.508;2023-01-27T00:34:19;99577.88;;;-3.13;100.00
36600;BME280;35385;55.668;37.508;2023-01-27T00:35:20;99510.75;;;-3.41;100.00
36600;BME280;35385;55.668;37.508;2023-01-27T00:36:21;99487.34;;;-3.45;100.00
36600;BME280;35385;55.668;37.508;2023-01-27T00:37:21;99565.78;;;-2.88;100.00
36600;BME280;35385;55.668;37.508;2023-01-27T00:38:22;99569.88;;;-3.07;100.00
36600;BME280;35385;55.668;37.508;2023-01-27T00:39:23;99563.22;;;-3.17;100.00
36600;BME280;35385;55.668;37.508;2023-01-27T00:40:23;99570.28;;;-3.21;100.00
36600;BME280;35385;55.668;37.508;2023-01-27T00:41:24;99570.94;;;-3.14;100.00
36600;BME280;35385;55.668;37.508;2023-01-27T00:42:24;99564.19;;;-3.22;100.00
36600;BME280;35385;55.668;37.508;2023-01-27T00:43:25;99570.94;;;-3.14;100.00
36600;BME280;35385;55.668;37.508;2023-01-27T00:44:25;99518.09;;;-3.55;100.00
36600;BME280;35385;55.668;37.508;2023-01-27T00:45:26;99552.03;;;-3.23;100.00
36600;BME280;35385;55.668;37.508;2023-01-27T00:46:45;99580.31;;;-3.07;100.00
36600;BME280;35385;55.668;37.508;2023-01-27T00:47:49;99584.72;;;-3.09;100.00
36600;BME280;35385;55.668;37.508;2023-01-27T00:48:51;99544.56;;;-3.36;100.00
36600;BME280;35385;55.668;37.508;2023-01-27T00:49:52;99561.13;;;-3.37;100.00
36600;BME280;35385;55.668;37.508;2023-01-27T00:50:52;99573.38;;;-3.39;100.00
36600;BME280;35385;55.668;37.508;2023-01-27T00:51:53;99570.03;;;-3.44;100.00
36600;BME280;35385;55.668;37.508;2023-01-27T00:52:57;99540.63;;;-3.51;100.00
36600;BME280;35385;55.668;37.508;2023-01-27T00:54:01;99587.06;;;-3.31;100.00
36600;BME280;35385;55.668;37.508;2023-01-27T00:55:02;99546.75;;;-3.52;100.00
36600;BME280;35385;55.668;37.508;2023-01-27T00:56:03;99555.25;;;-3.45;100.00
36600;BME280;35385;55.668;37.508;2023-01-27T00:57:04;99578.97;;;-3.53;100.00
36600;BME280;35385;55.668;37.508;2023-01-27T00:58:05;99519.13;;;-3.92;100.00
36600;BME280;35385;55.668;37.508;2023-01-27T00:59:05;99579.13;;;-3.59;100.00
36600;BME280;35385;55.668;37.508;2023-01-27T01:00:07;99513.56;;;-3.79;100.00
36600;BME280;35385;55.668;37.508;2023-01-27T01:01:11;99569.09;;;-3.42;100.00
36600;BME280;35385;55.668;37.508;2023-01-27T01:02:12;99546.91;;;-3.58;100.00
36600;BME280;35385;55.668;37.508;2023-01-27T01:03:12;99558.00;;;-3.50;100.00
36600;BME280;35385;55.668;37.508;2023-01-27T01:04:13;99503.19;;;-3.82;100.00
36600;BME280;35385;55.668;37.508;2023-01-27T01:05:13;99555.19;;;-3.42;100.00
36600;BME280;35385;55.668;37.508;2023-01-27T01:06:16;99558.31;;;-3.30;100.00
36600;BME280;35385;55.668;37.508;2023-01-27T01:07:17;99560.22;;;-3.35;100.00
36600;BME280;35385;55.668;37.508;2023-01-27T01:08:17;99552.34;;;-3.33;100.00
36600;BME280;35385;55.668;37.508;2023-01-27T01:09:18;99533.94;;;-3.30;100.00
36600;BME280;35385;55.668;37.508;2023-01-27T01:10:18;99493.38;;;-3.74;100.00
36600;BME280;35385;55.668;37.508;2023-01-27T01:11:20;99490.59;;;-3.67;100.00
36600;BME280;35385;55.668;37.508;2023-01-27T01:12:21;99553.47;;;-3.43;100.00
36600;BME280;35385;55.668;37.508;2023-01-27T01:13:21;99564.84;;;-3.46;100.00
36600;BME280;35385;55.668;37.508;2023-01-27T01:14:22;99472.41;;;-4.02;100.00
36600;BME280;35385;55.668;37.508;2023-01-27T01:15:22;99491.13;;;-3.86;100.00
36600;BME280;35385;55.668;37.508;2023-01-27T01:16:24;99558.13;;;-3.54;100.00
36600;BME280;35385;55.668;37.508;2023-01-27T01:17:25;99512.66;;;-3.78;100.00
36600;BME280;35385;55.668;37.508;2023-01-27T01:18:25;99563.47;;;-3.59;100.00
36600;BME280;35385;55.668;37.508;2023-01-27T01:19:26;99471.44;;;-4.32;100.00
36600;BME280;35385;55.668;37.508;2023-01-27T01:20:26;99559.47;;;-3.72;100.00
36600;BME280;35385;55.668;37.508;2023-01-27T01:21:27;99561.25;;;-3.74;100.00
36600;BME280;35385;55.668;37.508;2023-01-27T01:22:27;99470.59;;;-4.33;100.00
36600;BME280;35385;55.668;37.508;2023-01-27T01:23:28;99568.31;;;-3.76;100.00
36600;BME280;35385;55.668;37.508;2023-01-27T01:24:28;99538.03;;;-3.83;100.00
36600;BME280;35385;55.668;37.508;2023-01-27T01:25:29;99519.34;;;-4.01;100.00
36600;BME280;35385;55.668;37.508;2023-01-27T01:26:29;99551.97;;;-3.84;100.00
36600;BME280;35385;55.668;37.508;2023-01-27T01:27:30;99502.06;;;-4.05;100.00
36600;BME280;35385;55.668;37.508;2023-01-27T01:28:31;99472.16;;;-4.25;100.00
36600;BME280;35385;55.668;37.508;2023-01-27T01:29:31;99548.75;;;-3.62;100.00
36600;BME280;35385;55.668;37.508;2023-01-27T01:30:36;99560.81;;;-3.58;100.00
36600;BME280;35385;55.668;37.508;2023-01-27T01:31:37;99548.50;;;-3.52;100.00
36600;BME280;35385;55.668;37.508;2023-01-27T01:32:37;99553.91;;;-3.60;100.00
36600;BME280;35385;55.668;37.508;2023-01-27T01:33:38;99554.91;;;-3.64;100.00
36600;BME280;35385;55.668;37.508;2023-01-27T01:34:38;99574.00;;;-3.62;100.00
36600;BME280;35385;55.668;37.508;2023-01-27T01:35:40;99566.19;;;-3.62;100.00
36600;BME280;35385;55.668;37.508;2023-01-27T01:36:40;99560.06;;;-3.61;100.00
36600;BME280;35385;55.668;37.508;2023-01-27T01:37:41;99563.56;;;-3.62;100.00
36600;BME280;35385;55.668;37.508;2023-01-27T01:38:42;99557.88;;;-3.76;100.00
36600;BME280;35385;55.668;37.508;2023-01-27T01:39:42;99507.31;;;-4.06;100.00
36600;BME280;35385;55.668;37.508;2023-01-27T01:40:43;99524.19;;;-3.87;100.00
36600;BME280;35385;55.668;37.508;2023-01-27T01:41:44;99466.94;;;-4.25;100.00
36600;BME280;35385;55.668;37.508;2023-01-27T01:43:00;99556.00;;;-3.73;100.00
36600;BME280;35385;55.668;37.508;2023-01-27T01:44:27;99543.16;;;-3.80;100.00
36600;BME280;35385;55.668;37.508;2023-01-27T01:46:31;99544.09;;;-3.83;100.00
36600;BME280;35385;55.668;37.508;2023-01-27T01:47:32;99538.84;;;-3.81;100.00
36600;BME280;35385;55.668;37.508;2023-01-27T01:48:35;99547.53;;;-3.81;100.00
36600;BME280;35385;55.668;37.508;2023-01-27T01:49:39;99536.09;;;-3.75;100.00
36600;BME280;35385;55.668;37.508;2023-01-27T01:50:43;99536.22;;;-3.81;100.00
36600;BME280;35385;55.668;37.508;2023-01-27T01:51:49;99549.16;;;-3.77;100.00
36600;BME280;35385;55.668;37.508;2023-01-27T01:52:51;99509.75;;;-4.00;100.00
36600;BME280;35385;55.668;37.508;2023-01-27T01:54:15;99554.91;;;-3.64;100.00
36600;BME280;35385;55.668;37.508;2023-01-27T01:55:17;99553.38;;;-3.73;100.00
36600;BME280;35385;55.668;37.508;2023-01-27T01:56:23;99534.19;;;-3.70;100.00
36600;BME280;35385;55.668;37.508;2023-01-27T01:57:29;99557.13;;;-3.49;100.00
36600;BME280;35385;55.668;37.508;2023-01-27T01:58:33;99552.88;;;-3.53;100.00
36600;BME280;35385;55.668;37.508;2023-01-27T01:59:38;99462.19;;;-4.10;100.00
36600;BME280;35385;55.668;37.508;2023-01-27T02:00:40;99550.34;;;-3.56;100.00
36600;BME280;35385;55.668;37.508;2023-01-27T02:01:40;99500.47;;;-3.78;100.00
36600;BME280;35385;55.668;37.508;2023-01-27T02:02:42;99539.47;;;-3.73;100.00
36600;BME280;35385;55.668;37.508;2023-01-27T02:03:47;99526.44;;;-3.73;100.00
36600;BME280;35385;55.668;37.508;2023-01-27T02:04:53;99558.50;;;-3.68;100.00
36600;BME280;35385;55.668;37.508;2023-01-27T02:05:56;99426.72;;;-4.49;100.00
36600;BME280;35385;55.668;37.508;2023-01-27T02:07:21;99527.66;;;-3.86;100.00
36600;BME280;35385;55.668;37.508;2023-01-27T02:08:24;99543.00;;;-3.74;100.00
36600;BME280;35385;55.668;37.508;2023-01-27T02:09:27;99540.72;;;-3.86;100.00
36600;BME280;35385;55.668;37.508;2023-01-27T02:10:28;99522.38;;;-3.83;100.00
36600;BME280;35385;55.668;37.508;2023-01-27T02:11:29;99552.47;;;-3.70;100.00
36600;BME280;35385;55.668;37.508;2023-01-27T02:12:30;99544.97;;;-3.82;100.00
36600;BME280;35385;55.668;37.508;2023-01-27T02:13:30;99504.19;;;-3.88;100.00
36600;BME280;35385;55.668;37.508;2023-01-27T02:14:32;99540.19;;;-3.67;100.00
36600;BME280;35385;55.668;37.508;2023-01-27T02:15:33;99522.09;;;-3.74;100.00
36600;BME280;35385;55.668;37.508;2023-01-27T02:16:34;99527.47;;;-3.79;100.00
36600;BME280;35385;55.668;37.508;2023-01-27T02:17:35;99527.47;;;-3.79;100.00
36600;BME280;35385;55.668;37.508;2023-01-27T02:18:39;99543.13;;;-3.79;100.00
36600;BME280;35385;55.668;37.508;2023-01-27T02:21:14;99483.31;;;-4.19;100.00
36600;BME280;35385;55.668;37.508;2023-01-27T02:22:27;99543.25;;;-3.83;100.00
36600;BME280;35385;55.668;37.508;2023-01-27T02:23:36;99453.19;;;-4.32;100.00
36600;BME280;35385;55.668;37.508;2023-01-27T02:24:44;99482.22;;;-4.12;100.00
36600;BME280;35385;55.668;37.508;2023-01-27T02:26:01;99541.44;;;-3.81;100.00
36600;BME280;35385;55.668;37.508;2023-01-27T02:27:03;99517.13;;;-3.83;100.00
36600;BME280;35385;55.668;37.508;2023-01-27T02:28:06;99537.47;;;-3.62;100.00
36600;BME280;35385;55.668;37.508;2023-01-27T02:29:09;99543.41;;;-3.57;100.00
36600;BME280;35385;55.668;37.508;2023-01-27T02:30:10;99513.09;;;-3.63;100.00
36600;BME280;35385;55.668;37.508;2023-01-27T02:31:11;99529.47;;;-3.58;100.00
36600;BME280;35385;55.668;37.508;2023-01-27T02:32:24;99540.88;;;-3.60;100.00
36600;BME280;35385;55.668;37.508;2023-01-27T02:33:25;99547.28;;;-3.72;100.00
36600;BME280;35385;55.668;37.508;2023-01-27T02:34:29;99526.72;;;-3.84;100.00
36600;BME280;35385;55.668;37.508;2023-01-27T02:35:36;99515.44;;;-3.84;100.00
36600;BME280;35385;55.668;37.508;2023-01-27T02:36:44;99535.81;;;-3.66;100.00
36600;BME280;35385;55.668;37.508;2023-01-27T02:37:47;99500.66;;;-3.85;100.00
36600;BME280;35385;55.668;37.508;2023-01-27T02:38:51;99474.63;;;-3.88;100.00
36600;BME280;35385;55.668;37.508;2023-01-27T02:39:53;99550.75;;;-3.71;100.00
36600;BME280;35385;55.668;37.508;2023-01-27T02:40:56;99540.38;;;-3.74;100.00
36600;BME280;35385;55.668;37.508;2023-01-27T02:42:00;99531.66;;;-3.73;100.00
36600;BME280;35385;55.668;37.508;2023-01-27T02:43:02;99514.50;;;-3.82;100.00
36600;BME280;35385;55.668;37.508;2023-01-27T02:44:04;99532.31;;;-3.65;100.00
36600;BME280;35385;55.668;37.508;2023-01-27T02:45:05;99523.78;;;-3.72;100.00
36600;BME280;35385;55.668;37.508;2023-01-27T02:46:05;99507.38;;;-3.75;100.00
36600;BME280;35385;55.668;37.508;2023-01-27T02:47:06;99522.69;;;-3.63;100.00
36600;BME280;35385;55.668;37.508;2023-01-27T02:48:06;99524.56;;;-3.68;100.00
36600;BME280;35385;55.668;37.508;2023-01-27T02:49:07;99456.28;;;-4.18;100.00
36600;BME280;35385;55.668;37.508;2023-01-27T02:50:08;99439.03;;;-4.22;100.00
36600;BME280;35385;55.668;37.508;2023-01-27T02:51:09;99462.25;;;-4.13;100.00
36600;BME280;35385;55.668;37.508;2023-01-27T02:52:10;99469.66;;;-3.96;100.00
36600;BME280;35385;55.668;37.508;2023-01-27T02:53:11;99489.44;;;-3.89;100.00
36600;BME280;35385;55.668;37.508;2023-01-27T02:54:11;99495.75;;;-3.96;100.00
36600;BME280;35385;55.668;37.508;2023-01-27T02:55:12;99511.84;;;-3.80;100.00
36600;BME280;35385;55.668;37.508;2023-01-27T02:56:12;99510.03;;;-3.77;100.00
36600;BME280;35385;55.668;37.508;2023-01-27T02:57:13;99444.81;;;-4.11;100.00
36600;BME280;35385;55.668;37.508;2023-01-27T02:58:13;99523.81;;;-3.73;100.00
36600;BME280;35385;55.668;37.508;2023-01-27T02:59:15;99496.44;;;-3.89;100.00
36600;BME280;35385;55.668;37.508;2023-01-27T03:00:16;99517.31;;;-3.89;100.00
36600;BME280;35385;55.668;37.508;2023-01-27T03:01:17;99527.88;;;-3.94;100.00
36600;BME280;35385;55.668;37.508;2023-01-27T03:02:18;99468.34;;;-4.12;100.00
36600;BME280;35385;55.668;37.508;2023-01-27T03:03:22;99518.28;;;-3.94;100.00
36600;BME280;35385;55.668;37.508;2023-01-27T03:04:22;99513.97;;;-3.95;100.00
36600;BME280;35385;55.668;37.508;2023-01-27T03:05:23;99365.66;;;-4.75;100.00
36600;BME280;35385;55.668;37.508;2023-01-27T03:06:24;99443.81;;;-4.39;100.00
36600;BME280;35385;55.668;37.508;2023-01-27T03:07:25;99529.38;;;-3.85;100.00
36600;BME280;35385;55.668;37.508;2023-01-27T03:08:25;99507.38;;;-3.75;100.00
36600;BME280;35385;55.668;37.508;2023-01-27T03:09:26;99524.97;;;-3.83;100.00
36600;BME280;35385;55.668;37.508;2023-01-27T03:10:27;99466.72;;;-4.18;100.00
36600;BME280;35385;55.668;37.508;2023-01-27T03:11:27;99521.75;;;-3.93;100.00
36600;BME280;35385;55.668;37.508;2023-01-27T03:12:46;99519.19;;;-3.95;100.00
36600;BME280;35385;55.668;37.508;2023-01-27T03:13:47;99516.56;;;-3.95;100.00
36600;BME280;35385;55.668;37.508;2023-01-27T03:14:49;99517.63;;;-4.02;100.00
36600;BME280;35385;55.668;37.508;2023-01-27T03:16:10;99538.38;;;-3.97;100.00
36600;BME280;35385;55.668;37.508;2023-01-27T03:17:29;99440.47;;;-4.44;100.00
36600;BME280;35385;55.668;37.508;2023-01-27T03:18:49;99524.38;;;-3.93;100.00
36600;BME280;35385;55.668;37.508;2023-01-27T03:19:50;99513.72;;;-3.85;100.00
36600;BME280;35385;55.668;37.508;2023-01-27T03:20:59;99458.69;;;-4.09;100.00
36600;BME280;35385;55.668;37.508;2023-01-27T03:22:00;99518.78;;;-3.79;100.00
36600;BME280;35385;55.668;37.508;2023-01-27T03:23:02;99525.50;;;-3.71;100.00
36600;BME280;35385;55.668;37.508;2023-01-27T03:24:03;99515.28;;;-3.78;100.00
36600;BME280;35385;55.668;37.508;2023-01-27T03:25:04;99518.84;;;-3.82;100.00
36600;BME280;35385;55.668;37.508;2023-01-27T03:26:06;99528.28;;;-3.77;100.00
36600;BME280;35385;55.668;37.508;2023-01-27T03:27:07;99512.69;;;-3.80;100.00
36600;BME280;35385;55.668;37.508;2023-01-27T03:28:08;99521.75;;;-3.93;100.00
36600;BME280;35385;55.668;37.508;2023-01-27T03:29:08;99502.28;;;-4.14;100.00
36600;BME280;35385;55.668;37.508;2023-01-27T03:30:27;99502.63;;;-3.94;100.00
36600;BME280;35385;55.668;37.508;2023-01-27T03:31:28;99513.06;;;-3.94;100.00
36600;BME280;35385;55.668;37.508;2023-01-27T03:32:30;99444.63;;;-4.36;100.00
36600;BME280;35385;55.668;37.508;2023-01-27T03:33:31;99514.91;;;-3.97;100.00
36600;BME280;35385;55.668;37.508;2023-01-27T03:34:31;99504.69;;;-4.05;100.00
36600;BME280;35385;55.668;37.508;2023-01-27T03:35:36;99506.44;;;-4.05;100.00
36600;BME280;35385;55.668;37.508;2023-01-27T03:36:47;99514.19;;;-4.04;100.00
36600;BME280;35385;55.668;37.508;2023-01-27T03:38:11;99517.47;;;-3.96;100.00
36600;BME280;35385;55.668;37.508;2023-01-27T03:39:30;99533.66;;;-3.83;100.00
36600;BME280;35385;55.668;37.508;2023-01-27T03:40:50;99513.06;;;-3.94;100.00
36600;BME280;35385;55.668;37.508;2023-01-27T03:42:09;99537.75;;;-3.74;100.00
36600;BME280;35385;55.668;37.508;2023-01-27T03:43:28;99533.81;;;-3.89;100.00
36600;BME280;35385;55.668;37.508;2023-01-27T03:44:47;99424.31;;;-4.58;100.00
36600;BME280;35385;55.668;37.508;2023-01-27T03:46:07;99464.78;;;-4.44;100.00
36600;BME280;35385;55.668;37.508;2023-01-27T03:47:19;99529.00;;;-4.04;100.00
36600;BME280;35385;55.668;37.508;2023-01-27T03:48:20;99518.84;;;-4.15;100.00
36600;BME280;35385;55.668;37.508;2023-01-27T03:49:21;99514.44;;;-4.13;100.00
36600;BME280;35385;55.668;37.508;2023-01-27T03:50:21;99531.28;;;-3.90;100.00
36600;BME280;35385;55.668;37.508;2023-01-27T03:51:30;99526.25;;;-4.00;100.00
36600;BME280;35385;55.668;37.508;2023-01-27T03:52:30;99506.03;;;-3.90;100.00
36600;BME280;35385;55.668;37.508;2023-01-27T03:53:32;99524.28;;;-3.90;100.00
36600;BME280;35385;55.668;37.508;2023-01-27T03:54:32;99532.28;;;-3.96;100.00
36600;BME280;35385;55.668;37.508;2023-01-27T03:55:35;99537.41;;;-3.93;100.00
36600;BME280;35385;55.668;37.508;2023-01-27T03:56:36;99531.47;;;-4.00;100.00
36600;BME280;35385;55.668;37.508;2023-01-27T03:57:36;99526.13;;;-3.94;100.00
36600;BME280;35385;55.668;37.508;2023-01-27T03:58:38;99451.69;;;-4.41;100.00
36600;BME280;35385;55.668;37.508;2023-01-27T03:59:38;99519.34;;;-4.01;100.00
36600;BME280;35385;55.668;37.508;2023-01-27T04:00:39;99462.22;;;-4.45;100.00
36600;BME280;35385;55.668;37.508;2023-01-27T04:01:40;99530.59;;;-3.99;100.00
36600;BME280;35385;55.668;37.508;2023-01-27T04:02:43;99516.00;;;-4.06;100.00
36600;BME280;35385;55.668;37.508;2023-01-27T04:04:02;99492.25;;;-4.29;100.00
36600;BME280;35385;55.668;37.508;2023-01-27T04:05:21;99465.66;;;-4.43;100.00
36600;BME280;35385;55.668;37.508;2023-01-27T04:06:41;99533.28;;;-4.02;100.00
36600;BME280;35385;55.668;37.508;2023-01-27T04:08:04;99561.31;;;-4.10;100.00
36600;BME280;35385;55.668;37.508;2023-01-27T04:09:06;99535.47;;;-4.19;100.00
36600;BME280;35385;55.668;37.508;2023-01-27T04:10:07;99529.34;;;-4.18;100.00
36600;BME280;35385;55.668;37.508;2023-01-27T04:11:08;99516.22;;;-4.15;100.00
36600;BME280;35385;55.668;37.508;2023-01-27T04:12:27;99526.50;;;-4.09;100.00
36600;BME280;35385;55.668;37.508;2023-01-27T04:13:27;99532.16;;;-3.92;100.00
36600;BME280;35385;55.668;37.508;2023-01-27T04:14:33;99556.25;;;-3.82;100.00
36600;BME280;35385;55.668;37.508;2023-01-27T04:15:33;99523.63;;;-3.98;100.00
36600;BME280;35385;55.668;37.508;2023-01-27T04:16:35;99528.09;;;-4.03;100.00
36600;BME280;35385;55.668;37.508;2023-01-27T04:17:36;99546.34;;;-4.03;100.00
36600;BME280;35385;55.668;37.508;2023-01-27T04:18:38;99445.81;;;-4.49;100.00
36600;BME280;35385;55.668;37.508;2023-01-27T04:19:38;99521.91;;;-3.99;100.00
36600;BME280;35385;55.668;37.508;2023-01-27T04:20:39;99522.47;;;-3.88;100.00
36600;BME280;35385;55.668;37.508;2023-01-27T04:21:40;99537.97;;;-3.82;100.00
36600;BME280;35385;55.668;37.508;2023-01-27T04:22:41;99538.59;;;-3.72;100.00
36600;BME280;35385;55.668;37.508;2023-01-27T04:23:41;99531.28;;;-3.90;100.00
36600;BME280;35385;55.668;37.508;2023-01-27T04:24:42;99551.06;;;-3.83;100.00
36600;BME280;35385;55.668;37.508;2023-01-27T04:25:43;99538.28;;;-3.93;100.00
36600;BME280;35385;55.668;37.508;2023-01-27T04:26:44;99460.88;;;-4.26;100.00
36600;BME280;35385;55.668;37.508;2023-01-27T04:27:44;99510.59;;;-4.00;100.00
36600;BME280;35385;55.668;37.508;2023-01-27T04:28:45;99461.16;;;-4.37;100.00
36600;BME280;35385;55.668;37.508;2023-01-27T04:29:46;99541.22;;;-4.05;100.00
36600;BME280;35385;55.668;37.508;2023-01-27T04:30:47;99561.91;;;-3.99;100.00
36600;BME280;35385;55.668;37.508;2023-01-27T04:31:48;99550.56;;;-3.98;100.00
36600;BME280;35385;55.668;37.508;2023-01-27T04:32:49;99547.03;;;-3.95;100.00
36600;BME280;35385;55.668;37.508;2023-01-27T04:33:49;99535.81;;;-3.99;100.00
36600;BME280;35385;55.668;37.508;2023-01-27T04:34:50;99557.50;;;-3.97;100.00
36600;BME280;35385;55.668;37.508;2023-01-27T04:35:51;99529.22;;;-4.13;100.00
36600;BME280;35385;55.668;37.508;2023-01-27T04:36:52;99395.41;;;-4.83;100.00
36600;BME280;35385;55.668;37.508;2023-01-27T04:37:52;99459.78;;;-4.51;100.00
36600;BME280;35385;55.668;37.508;2023-01-27T04:38:53;99495.56;;;-4.22;100.00
36600;BME280;35385;55.668;37.508;2023-01-27T04:39:53;99558.16;;;-3.88;100.00
36600;BME280;35385;55.668;37.508;2023-01-27T04:40:54;99530.56;;;-3.97;100.00
36600;BME280;35385;55.668;37.508;2023-01-27T04:41:55;99558.94;;;-3.85;100.00
36600;BME280;35385;55.668;37.508;2023-01-27T04:42:56;99546.97;;;-3.92;100.00
36600;BME280;35385;55.668;37.508;2023-01-27T04:43:57;99478.38;;;-4.31;100.00
36600;BME280;35385;55.668;37.508;2023-01-27T04:44:58;99481.16;;;-4.37;100.00
36600;BME280;35385;55.668;37.508;2023-01-27T04:45:58;99552.50;;;-4.04;100.00
36600;BME280;35385;55.668;37.508;2023-01-27T04:46:59;99523.00;;;-4.08;100.00
36600;BME280;35385;55.668;37.508;2023-01-27T04:47:59;99518.41;;;-3.98;100.00
36600;BME280;35385;55.668;37.508;2023-01-27T04:49:00;99557.19;;;-3.84;100.00
36600;BME280;35385;55.668;37.508;2023-01-27T04:50:01;99441.56;;;-4.53;100.00
36600;BME280;35385;55.668;37.508;2023-01-27T04:51:02;99550.25;;;-3.85;100.00
36600;BME280;35385;55.668;37.508;2023-01-27T04:52:02;99541.84;;;-3.97;100.00
36600;BME280;35385;55.668;37.508;2023-01-27T04:53:03;99546.81;;;-3.87;100.00
36600;BME280;35385;55.668;37.508;2023-01-27T04:54:04;99530.06;;;-4.11;100.00
36600;BME280;35385;55.668;37.508;2023-01-27T04:55:05;99480.09;;;-4.30;100.00
36600;BME280;35385;55.668;37.508;2023-01-27T04:56:19;99576.22;;;-3.79;100.00
36600;BME280;35385;55.668;37.508;2023-01-27T04:57:20;99565.91;;;-3.85;100.00
36600;BME280;35385;55.668;37.508;2023-01-27T04:58:21;99549.31;;;-3.83;100.00
36600;BME280;35385;55.668;37.508;2023-01-27T04:59:21;99521.22;;;-4.06;100.00
36600;BME280;35385;55.668;37.508;2023-01-27T05:00:22;99578.81;;;-3.79;100.00
36600;BME280;35385;55.668;37.508;2023-01-27T05:01:22;99560.94;;;-3.95;100.00
36600;BME280;35385;55.668;37.508;2023-01-27T05:02:23;99557.38;;;-3.90;100.00
36600;BME280;35385;55.668;37.508;2023-01-27T05:03:25;99510.56;;;-4.32;100.00
36600;BME280;35385;55.668;37.508;2023-01-27T05:04:26;99532.41;;;-4.02;100.00
36600;BME280;35385;55.668;37.508;2023-01-27T05:05:26;99563.44;;;-3.90;100.00
36600;BME280;35385;55.668;37.508;2023-01-27T05:06:27;99529.94;;;-4.07;100.00
36600;BME280;35385;55.668;37.508;2023-01-27T05:07:28;99562.00;;;-3.69;100.00
36600;BME280;35385;55.668;37.508;2023-01-27T05:08:29;99480.91;;;-4.28;100.00
36600;BME280;35385;55.668;37.508;2023-01-27T05:09:29;99553.47;;;-4.08;100.00
36600;BME280;35385;55.668;37.508;2023-01-27T05:10:30;99570.97;;;-4.13;100.00
36600;BME280;35385;55.668;37.508;2023-01-27T05:11:31;99557.84;;;-4.10;100.00
36600;BME280;35385;55.668;37.508;2023-01-27T05:12:32;99547.69;;;-4.21;100.00
36600;BME280;35385;55.668;37.508;2023-01-27T05:13:33;99487.50;;;-4.47;100.00
36600;BME280;35385;55.668;37.508;2023-01-27T05:14:33;99562.88;;;-4.03;100.00
36600;BME280;35385;55.668;37.508;2023-01-27T05:15:34;99561.16;;;-4.04;100.00
36600;BME280;35385;55.668;37.508;2023-01-27T05:16:37;99545.00;;;-4.18;100.00
36600;BME280;35385;55.668;37.508;2023-01-27T05:17:37;99577.63;;;-4.02;100.00
36600;BME280;35385;55.668;37.508;2023-01-27T05:18:39;99544.56;;;-4.01;100.00
36600;BME280;35385;55.668;37.508;2023-01-27T05:19:40;99542.63;;;-3.93;100.00
36600;BME280;35385;55.668;37.508;2023-01-27T05:20:40;99474.38;;;-4.44;100.00
36600;BME280;35385;55.668;37.508;2023-01-27T05:21:41;99564.38;;;-3.93;100.00
36600;BME280;35385;55.668;37.508;2023-01-27T05:22:42;99515.50;;;-4.20;100.00
36600;BME280;35385;55.668;37.508;2023-01-27T05:23:43;99540.34;;;-4.05;100.00
36600;BME280;35385;55.668;37.508;2023-01-27T05:24:43;99476.22;;;-4.48;100.00
36600;BME280;35385;55.668;37.508;2023-01-27T05:25:44;99568.00;;;-4.00;100.00
36600;BME280;35385;55.668;37.508;2023-01-27T05:26:44;99579.22;;;-3.95;100.00
36600;BME280;35385;55.668;37.508;2023-01-27T05:27:45;99506.16;;;-4.30;100.00
36600;BME280;35385;55.668;37.508;2023-01-27T05:28:47;99585.97;;;-3.87;100.00
36600;BME280;35385;55.668;37.508;2023-01-27T05:29:48;99567.47;;;-3.78;100.00